• Join FlightAware (Why Join?)
  • Login
  • US Flag 
Gobble Gobble! 
04:22PM EST


 

Airport Tracker/Info


-or-


 

Live Flight TrackerFlight Track Log ✈ N612CT ✈ 16-Nov-2013 ✈ KOPF - X39

Flight Track Log - Related Links

Times and Time Zones

All times are in EST time to prevent confusion due to time zone crossing. See the N612CT flight status page for this flight to view local times or setup timezone preferences in your user account.

Time Position Orientation Groundspeed Altitude Reporting Facility
EST Latitude Longitude Course Direction KTS MPH feet Rate Location/Type
01:13PM 25.9011 -80.2428 85° East 102 117 1,500  Level Miami Center
01:14PM 25.9106 -80.2061 74° East 146 168 2,000 420 Climbing Miami Center
01:15PM 25.9497 -80.2281 333° Northwest 161 185 2,400 840 Climbing Miami Center
01:16PM 25.9761 -80.2519 321° Northwest 113 130 3,800 1,200 Climbing Miami Center
01:17PM 25.9814 -80.2936 278° West 126 145 4,900 1,140 Climbing Miami Center
01:18PM 25.9847 -80.3331 275° West 124 143 6,200 960 Climbing Miami Center
01:21PM 26.0039 -80.4053 286° West 127 146 8,000 540 Climbing Miami Center
01:22PM 26.0194 -80.4519 290° West 142 163 8,000  Level Miami Center
01:23PM 26.0350 -80.5031 289° West 162 186 8,000  Level Miami Center
01:24PM 26.0525 -80.5522 292° West 167 192 8,000  Level Miami Center
01:25PM 26.0678 -80.6036 288° West 172 198 8,000  Level Miami Center
01:26PM 26.0981 -80.6483 307° West 172 198 8,000  Level Miami Center
01:27PM 26.1347 -80.6867 317° Northwest 177 204 8,000  Level Miami Center
01:28PM 26.1775 -80.7228 323° Northwest 183 211 8,000  Level Miami Center
01:29PM 26.2206 -80.7519 329° Northwest 183 211 8,000  Level Miami Center
01:30PM 26.2617 -80.7833 326° Northwest 183 211 8,000  Level Miami Center
01:31PM 26.3086 -80.8175 327° Northwest 183 211 8,000  Level Miami Center
01:32PM 26.3497 -80.8442 330° Northwest 189 217 8,000  Level Miami Center
01:33PM 26.3947 -80.8783 326° Northwest 184 212 8,000  Level Miami Center
01:34PM 26.4339 -80.9028 331° Northwest 184 212 8,000  Level Miami Center
01:35PM 26.4831 -80.9369 328° Northwest 184 212 8,000  Level Miami Center
01:36PM 26.5281 -80.9686 328° Northwest 195 224 8,000  Level Miami Center
01:37PM 26.5669 -80.9956 328° Northwest 189 217 8,000  Level Miami Center
01:38PM 26.6078 -81.0250 327° Northwest 184 212 8,000  Level Miami Center
01:39PM 26.6569 -81.0614 327° Northwest 189 217 8,000  Level Miami Center
01:40PM 26.7000 -81.0908 329° Northwest 189 217 8,000  Level Miami Center
01:41PM 26.7428 -81.1228 326° Northwest 189 217 8,000  Level Miami Center
01:42PM 26.7836 -81.1522 327° Northwest 184 212 8,000  Level Miami Center
01:43PM 26.8267 -81.1817 329° Northwest 184 212 8,000  Level Miami Center
01:44PM 26.8656 -81.2086 328° Northwest 184 212 8,000  Level Miami Center
01:45PM 26.9064 -81.2381 327° Northwest 184 212 8,000 -60 Level Miami Center
01:46PM 26.9492 -81.2700 326° Northwest 190 219 7,900 -60 Descending Miami Center
01:47PM 26.9942 -81.2997 330° Northwest 190 219 7,900  Level Miami Center
01:48PM 27.0350 -81.3314 325° Northwest 185 213 8,000  Climbing Miami Center
01:49PM 27.0822 -81.3636 329° Northwest 180 207 8,000 -60 Level Miami Center
01:50PM 27.1208 -81.3931 326° Northwest 189 217 7,900 -60 Descending Miami Center
01:51PM 27.1617 -81.4203 329° Northwest 189 217 7,900  Level Miami Center
01:52PM 27.2044 -81.4525 326° Northwest 189 217 7,900  Level Miami Center
01:53PM 27.2475 -81.4822 328° Northwest 189 217 7,900  Level Miami Center
01:54PM 27.2903 -81.5119 328° Northwest 189 217 7,900  Level Miami Center
01:55PM 27.3331 -81.5442 326° Northwest 189 217 7,900  Level Miami Center
01:56PM 27.3739 -81.5736 327° Northwest 189 217 7,900  Level Miami Center
01:57PM 27.4167 -81.6036 328° Northwest 189 217 7,900  Level Miami Center
01:58PM 27.4594 -81.6358 326° Northwest 189 217 7,900 -300 Level Miami Center
01:59PM 27.5044 -81.6656 330° Northwest 189 217 7,400 -540 Descending Miami Center
02:00PM 27.5553 -81.7031 327° Northwest 189 217 6,900 -600 Descending Miami Center
02:01PM 27.5961 -81.7328 327° Northwest 189 217 6,300 -600 Descending Miami Center
02:02PM 27.6431 -81.7653 328° Northwest 189 217 5,700 -600 Descending Miami Center
02:03PM 27.6939 -81.8025 327° Northwest 195 224 5,100 -600 Descending Miami Center
02:04PM 27.7386 -81.8350 327° Northwest 195 224 4,500 -600 Descending Miami Center
02:05PM 27.7833 -81.8697 326° Northwest 195 224 4,000 -300 Descending Miami Center
02:06PM 27.8261 -81.8975 330° Northwest 190 219 4,000  Level Miami Center
02:07PM 27.8669 -81.9275 327° Northwest 185 213 4,000 -360 Level Miami Center
02:08PM 27.9333 -82.0000 316° Northwest 196 226 3,100 -420 Descending Tampa TRACON
02:09PM 27.9333 -82.0500 270° West 177 204 2,900 -480 Descending Tampa TRACON
02:10PM 27.9333 -82.1167 270° West 185 213 2,100 -540 Descending Tampa TRACON
02:11PM 27.9500 -82.1667 291° West 150 173 1,900 -120 Descending Tampa TRACON
02:12PM 27.9667 -82.2167 291° West 151 174 1,900  Level Tampa TRACON
02:13PM 27.9500 -82.2500 240° Southwest 142 163 1,900  Level Tampa TRACON
02:14PM 27.9667 -82.2833 300° West 142 163 1,900  Level Tampa TRACON
02:15PM 27.9833 -82.2500 60° Northeast 129 148 1,900  Level Tampa TRACON
02:16PM 28.0167 -82.2167 41° Northeast 132 152 1,900  Level Tampa TRACON
02:17PM 28.0333 -82.2000 41° Northeast 142 163 1,900  Level Tampa TRACON
02:18PM 28.0667 -82.1833 24° Northeast 134 154 1,900  Level Tampa TRACON
02:19PM 28.1000 -82.1667 24° Northeast 133 153 1,900 -120 Level Tampa TRACON
02:20PM 28.1333 -82.2000 319° Northwest 149 171 1,700 -180 Descending Tampa TRACON
02:21PM 28.1167 -82.2500 249° West 147 169 1,600  Descending Tampa TRACON
02:22PM 28.0833 -82.2833 221° Southwest 133 153 1,700 -300 Climbing Tampa TRACON
02:23PM 28.0500 -82.3000 204° Southwest 123 142 1,000 -720 Descending Tampa TRACON
02:25PM 28.1085 -82.3000 North  Level FlightAware Approximate
02:32PM 28.2167 -82.3667 310° West  Level FlightAware Approximate
02:33PM 28.2213 -82.3746 310° West  Level Estimated
02:34PM 28.2213 -82.3746 310° West  Level Estimated